»·PEaware :: N763BR KLAX-KPDX

N763BR :: KLAX-KPDX

FLIGHT INFORMATION

Flight Status: Arrived
Operator: Privately registered:
United States
More flights under this callsign
Pilot: John H. (610)
Aircraft: EMBRAER ERJ-145
(E145)
More flights by this aircraft type
Origin: KLAX Los Angeles Intl
United States
Destination: KPDX Portland Intl
United States
More flights between these airports :: More routes between these airports
Route: +LADYJ4 CSTRO DUCKE LMT MOXEE TMBRS2
File this flight plan on PilotEdge
Remarks:
Altitude:
(Current/Filed)
38,000ft
Speed:
(Current/Filed)
435kts
Departed: 25-Jul-18 05:31 PM
Arrived: 25-Jul-18 07:20 PM
Distance/Time
Traveled:
725nm/1:49
Distance/Time
To Go:
Arrived

Flight Plot

Page will automatically refresh every two minutes.

Flight plan parsing failed; only flown route is shown


Map Options




Map Legend


Flown Route
Filed Route
Departure Airport
Arrival Airport
Navaid (VOR, NDB)
Fix

Horizontal Profiles

Position Reports

Time Latitude Longitude Heading Altitude Ground
Speed
25-Jul-18 17:21 33.947195 -118.400745 266 133ft 0kts
25-Jul-18 17:22 33.947195 -118.400745 266 133ft 0kts
25-Jul-18 17:23 33.947195 -118.400745 266 133ft 0kts
25-Jul-18 17:24 33.947195 -118.400745 266 133ft 0kts
25-Jul-18 17:25 33.947195 -118.400745 266 133ft 0kts
25-Jul-18 17:26 33.947195 -118.400745 266 133ft 0kts
25-Jul-18 17:27 33.947195 -118.400745 266 133ft 0kts
25-Jul-18 17:28 33.947260 -118.400196 317 133ft 3kts
25-Jul-18 17:29 33.948064 -118.400060 2 133ft 4kts
25-Jul-18 17:30 33.949376 -118.401613 322 133ft 0kts
25-Jul-18 17:31 33.950174 -118.402506 265 133ft 11kts
25-Jul-18 17:32 33.946760 -118.436677 262 665ft 158kts
25-Jul-18 17:33 33.944181 -118.488561 265 2026ft 173kts
25-Jul-18 17:34 33.939363 -118.545428 262 3382ft 186kts
25-Jul-18 17:35 33.935242 -118.610564 281 5206ft 273kts
25-Jul-18 17:36 33.988070 -118.663157 347 7819ft 284kts
25-Jul-18 17:37 34.055881 -118.659216 6 7976ft 306kts
25-Jul-18 17:38 34.122500 -118.649237 7 7942ft 285kts
25-Jul-18 17:39 34.190654 -118.638439 7 8138ft 299kts
25-Jul-18 17:40 34.268455 -118.635253 348 11192ft 308kts
25-Jul-18 17:41 34.351858 -118.656125 348 14124ft 324kts
25-Jul-18 17:42 34.440591 -118.676890 351 17072ft 340kts
25-Jul-18 17:43 34.535287 -118.694932 351 19624ft 356kts
25-Jul-18 17:44 34.631054 -118.713220 350 22149ft 374kts
25-Jul-18 17:45 34.740655 -118.746635 333 23309ft 442kts
25-Jul-18 17:46 34.848583 -118.818372 329 25955ft 458kts
25-Jul-18 17:47 34.961732 -118.895645 329 28455ft 477kts
25-Jul-18 17:48 35.078627 -118.975786 329 30500ft 492kts
25-Jul-18 17:49 35.199192 -119.058725 328 32211ft 508kts
25-Jul-18 17:50 35.316659 -119.139452 327 34411ft 517kts
25-Jul-18 17:51 35.443562 -119.225179 335 36090ft 533kts
25-Jul-18 17:52 35.586382 -119.277919 342 37379ft 548kts
25-Jul-18 17:53 35.733352 -119.328745 342 37977ft 551kts
25-Jul-18 17:54 35.877391 -119.378743 342 37998ft 539kts
25-Jul-18 17:55 36.019050 -119.428111 342 38017ft 536kts
25-Jul-18 17:56 36.161178 -119.477822 342 38014ft 532kts
25-Jul-18 17:57 36.300227 -119.526638 342 38018ft 520kts
25-Jul-18 17:58 36.433936 -119.573755 342 38022ft 518kts
25-Jul-18 17:59 36.558801 -119.617907 342 38015ft 518kts
25-Jul-18 18:00 36.680081 -119.660934 342 37985ft 513kts
25-Jul-18 18:01 36.796891 -119.702504 342 37995ft 510kts
25-Jul-18 18:02 36.910134 -119.742937 342 37998ft 509kts
25-Jul-18 18:03 37.027163 -119.784793 341 38000ft 508kts
25-Jul-18 18:04 37.153451 -119.830188 340 37998ft 505kts
25-Jul-18 18:05 37.279215 -119.875581 340 37999ft 503kts
25-Jul-18 18:06 37.412681 -119.923879 340 38001ft 502kts
25-Jul-18 18:07 37.545736 -119.972208 340 37993ft 502kts
25-Jul-18 18:08 37.674525 -120.019162 340 37979ft 501kts
25-Jul-18 18:09 37.806298 -120.067372 340 37998ft 501kts
25-Jul-18 18:10 37.934870 -120.114304 340 38060ft 501kts
25-Jul-18 18:11 38.067543 -120.161888 340 38066ft 501kts
25-Jul-18 18:12 38.199808 -120.209619 340 38099ft 501kts
25-Jul-18 18:13 38.333771 -120.258150 340 38068ft 502kts
25-Jul-18 18:14 38.467326 -120.306712 340 38152ft 501kts
25-Jul-18 18:15 38.599873 -120.355102 340 38297ft 500kts
25-Jul-18 18:16 38.732561 -120.403727 340 38258ft 501kts
25-Jul-18 18:17 38.866227 -120.452901 340 38213ft 502kts
25-Jul-18 18:18 38.999554 -120.502065 338 38308ft 499kts
25-Jul-18 18:19 39.131550 -120.551075 338 38383ft 496kts
25-Jul-18 18:20 39.262326 -120.599760 338 38385ft 495kts
25-Jul-18 18:21 39.393194 -120.648658 338 38386ft 495kts
25-Jul-18 18:22 39.524635 -120.697965 338 38387ft 495kts
25-Jul-18 18:23 39.656160 -120.747502 338 38365ft 495kts
25-Jul-18 18:24 39.788050 -120.797377 338 38271ft 496kts
25-Jul-18 18:25 39.920146 -120.847521 338 38221ft 496kts
25-Jul-18 18:26 40.051835 -120.897718 338 38225ft 495kts
25-Jul-18 18:27 40.183647 -120.948158 338 38227ft 495kts
25-Jul-18 18:28 40.315623 -120.998879 338 38227ft 495kts
25-Jul-18 18:29 40.447271 -121.049671 338 38229ft 496kts
25-Jul-18 18:30 40.576769 -121.099832 338 38222ft 496kts
25-Jul-18 18:31 40.708946 -121.150740 337 38228ft 496kts
25-Jul-18 18:32 40.840796 -121.202233 337 38232ft 497kts
25-Jul-18 18:33 40.972989 -121.254077 337 38204ft 497kts
25-Jul-18 18:34 41.104153 -121.305721 337 38235ft 494kts
25-Jul-18 18:35 41.234781 -121.357392 337 38258ft 491kts
25-Jul-18 18:36 41.364947 -121.409088 337 38259ft 490kts
25-Jul-18 18:37 41.494986 -121.460947 337 38260ft 490kts
25-Jul-18 18:38 41.624423 -121.512782 337 38253ft 490kts
25-Jul-18 18:39 41.754587 -121.565130 337 38253ft 489kts
25-Jul-18 18:40 41.884729 -121.617691 337 38254ft 489kts
25-Jul-18 18:41 42.014223 -121.670213 337 38254ft 489kts
25-Jul-18 18:42 42.144273 -121.723184 337 38255ft 489kts
25-Jul-18 18:43 42.271092 -121.786276 334 38255ft 486kts
25-Jul-18 18:44 42.397220 -121.849276 334 38256ft 486kts
25-Jul-18 18:45 42.523835 -121.912763 334 38256ft 486kts
25-Jul-18 18:46 42.649804 -121.976200 334 38249ft 486kts
25-Jul-18 18:47 42.776147 -122.040101 334 38250ft 486kts
25-Jul-18 18:48 42.902891 -122.104509 333 37883ft 492kts
25-Jul-18 18:49 43.030571 -122.169100 334 37132ft 491kts
25-Jul-18 18:50 43.157571 -122.234143 334 36353ft 488kts
25-Jul-18 18:51 43.283824 -122.299140 334 35511ft 489kts
25-Jul-18 18:52 43.411343 -122.365077 334 34343ft 493kts
25-Jul-18 18:53 43.539570 -122.431690 334 33169ft 496kts
25-Jul-18 18:54 43.665962 -122.497629 334 31978ft 491kts
25-Jul-18 18:55 43.788318 -122.561753 334 30773ft 476kts
25-Jul-18 18:56 43.909679 -122.625652 334 29570ft 471kts
25-Jul-18 18:57 44.031214 -122.689913 335 28368ft 470kts
25-Jul-18 18:58 44.153625 -122.746707 352 27123ft 481kts
25-Jul-18 18:59 44.286608 -122.739835 0 25947ft 484kts
25-Jul-18 19:00 44.412710 -122.727419 1 24824ft 485kts
25-Jul-18 19:01 44.536818 -122.715107 1 23695ft 474kts
25-Jul-18 19:02 44.666075 -122.702153 1 22475ft 459kts
25-Jul-18 19:03 44.787573 -122.689903 1 20922ft 423kts
25-Jul-18 19:04 44.893175 -122.679264 1 17522ft 340kts
25-Jul-18 19:05 44.980558 -122.670543 2 13920ft 329kts
25-Jul-18 19:06 45.069931 -122.661358 2 11033ft 299kts
25-Jul-18 19:07 45.150180 -122.653244 2 9331ft 289kts
25-Jul-18 19:08 45.228075 -122.645304 3 7702ft 279kts
25-Jul-18 19:09 45.293951 -122.602340 30 6115ft 275kts
25-Jul-18 19:10 45.355789 -122.546368 31 4609ft 269kts
25-Jul-18 19:11 45.407574 -122.498787 31 4501ft 207kts
25-Jul-18 19:12 45.441037 -122.467737 31 4428ft 161kts
25-Jul-18 19:13 45.480462 -122.433130 18 3147ft 156kts
25-Jul-18 19:14 45.517990 -122.432795 334 2193ft 145kts
25-Jul-18 19:15 45.544472 -122.467138 300 934ft 145kts
25-Jul-18 19:16 45.560244 -122.507078 300 894ft 140kts
25-Jul-18 19:17 45.578693 -122.554325 300 297ft 139kts
25-Jul-18 19:21 45.586915 -122.593416 36 32ft 0kts
25-Jul-18 19:22 45.586915 -122.593416 36 32ft 0kts
25-Jul-18 19:23 45.586915 -122.593416 36 32ft 0kts
25-Jul-18 19:24 45.586915 -122.593416 36 32ft 0kts
25-Jul-18 19:25 45.586915 -122.593416 36 32ft 0kts
25-Jul-18 19:26 45.586915 -122.593416 36 32ft 0kts
25-Jul-18 19:27 45.586915 -122.593416 36 32ft 0kts
25-Jul-18 19:28 45.586915 -122.593416 36 32ft 0kts
25-Jul-18 19:29 45.586915 -122.593416 36 32ft 0kts
25-Jul-18 19:30 45.586915 -122.593416 36 32ft 0kts
25-Jul-18 19:31 45.586915 -122.593416 36 32ft 0kts

Navigation Log

Ident Type
Flight plan parsing failed, navigation log unavailable